createdAt,value
2019-05-20T00:02:29.557Z,1.62
2019-05-20T00:04:59.749Z,2.05
2019-05-20T00:07:29.980Z,1.80
2019-05-20T00:10:00.138Z,2.10
2019-05-20T00:12:31.658Z,2.55
2019-05-20T00:15:02.612Z,2.00
2019-05-20T00:17:32.856Z,2.42
2019-05-20T00:20:03.156Z,1.90
2019-05-20T00:22:33.386Z,1.85
2019-05-20T00:25:04.566Z,1.95
2019-05-20T00:27:34.845Z,2.22
2019-05-20T00:30:06.301Z,2.30
2019-05-20T00:32:41.355Z,1.72
2019-05-20T00:35:08.591Z,3.00
2019-05-20T00:37:39.016Z,2.77
2019-05-20T00:40:10.528Z,2.62
2019-05-20T00:42:40.647Z,2.55
2019-05-20T00:45:11.178Z,2.80
2019-05-20T00:47:41.270Z,3.45
2019-05-20T00:50:11.423Z,2.47
2019-05-20T00:52:41.747Z,3.12
2019-05-20T00:55:24.532Z,2.98
2019-05-20T00:57:54.637Z,1.85
2019-05-20T01:00:24.928Z,3.30
2019-05-20T01:02:57.274Z,2.92
2019-05-20T01:05:27.439Z,3.00
2019-05-20T01:07:57.544Z,3.05
2019-05-20T01:10:27.717Z,3.80
2019-05-20T01:12:57.952Z,3.05
2019-05-20T01:15:28.091Z,3.15
2019-05-20T01:17:58.275Z,3.60
2019-05-20T01:20:28.391Z,3.22
2019-05-20T01:22:58.680Z,4.22
2019-05-20T01:25:28.882Z,4.53
2019-05-20T01:27:59.037Z,3.52
2019-05-20T01:30:29.168Z,3.83
2019-05-20T01:33:12.770Z,5.20
2019-05-20T01:35:31.163Z,5.10
2019-05-20T01:38:01.437Z,5.40
2019-05-20T01:40:31.569Z,6.45
2019-05-20T01:43:01.795Z,5.05
2019-05-20T01:45:31.914Z,5.35
2019-05-20T01:48:02.124Z,4.90
2019-05-20T01:50:32.399Z,5.80
2019-05-20T01:53:02.770Z,5.42
2019-05-20T01:55:32.870Z,4.87
2019-05-20T01:58:03.063Z,5.00
2019-05-20T02:00:33.178Z,5.53
2019-05-20T02:03:03.356Z,5.20
2019-05-20T02:05:33.493Z,6.35
2019-05-20T02:08:03.919Z,6.62
2019-05-20T02:10:34.054Z,5.75
2019-05-20T02:13:04.266Z,6.35
2019-05-20T02:15:43.037Z,6.12
2019-05-20T02:18:13.184Z,6.28
2019-05-20T02:20:43.384Z,5.92
2019-05-20T02:23:16.812Z,6.40
2019-05-20T02:25:48.130Z,6.72
2019-05-20T02:28:18.298Z,6.62
2019-05-20T02:30:48.454Z,6.80
2019-05-20T02:33:18.650Z,6.87
2019-05-20T02:35:48.847Z,7.08
2019-05-20T02:38:19.532Z,6.25
2019-05-20T02:40:49.672Z,8.20
2019-05-20T02:43:19.979Z,5.80
2019-05-20T02:45:50.096Z,5.60
2019-05-20T02:48:27.465Z,7.03
2019-05-20T02:51:00.062Z,5.83
2019-05-20T02:53:36.223Z,5.35
2019-05-20T02:56:07.670Z,7.12
2019-05-20T02:58:40.150Z,5.72
2019-05-20T03:01:10.329Z,7.03
2019-05-20T03:03:40.723Z,7.28
2019-05-20T03:06:13.260Z,6.10
2019-05-20T03:08:43.454Z,7.55
2019-05-20T03:11:13.612Z,7.00
2019-05-20T03:13:43.848Z,6.55
2019-05-20T03:16:15.697Z,6.33
2019-05-20T03:18:46.786Z,7.50
2019-05-20T03:21:22.729Z,7.15
2019-05-20T03:23:56.176Z,8.85
2019-05-20T03:26:26.312Z,10.30
2019-05-20T03:28:56.498Z,8.18
2019-05-20T03:31:26.647Z,9.28
2019-05-20T03:33:58.406Z,8.00
2019-05-20T03:36:33.042Z,9.03
2019-05-20T03:39:05.020Z,9.45
2019-05-20T03:41:35.216Z,8.88
2019-05-20T03:44:05.458Z,9.93
2019-05-20T03:46:35.554Z,9.03
2019-05-20T03:49:05.703Z,9.73
2019-05-20T03:51:35.960Z,10.08
2019-05-20T03:54:09.510Z,9.48
2019-05-20T03:56:40.854Z,9.85
2019-05-20T03:59:13.881Z,11.40
2019-05-20T04:01:45.086Z,10.85
2019-05-20T04:04:15.229Z,9.08
2019-05-20T04:06:45.395Z,9.65
2019-05-20T04:09:15.558Z,10.35
2019-05-20T04:11:45.677Z,10.63
2019-05-20T04:14:19.144Z,10.70
2019-05-20T04:16:53.121Z,8.68
2019-05-20T04:19:23.218Z,10.58
2019-05-20T04:21:55.695Z,10.80
2019-05-20T04:24:25.918Z,10.48
2019-05-20T04:26:59.818Z,9.75
2019-05-20T04:29:30.001Z,10.13
2019-05-20T04:32:00.293Z,8.90
2019-05-20T04:34:32.149Z,12.47
2019-05-20T04:37:04.346Z,9.40
2019-05-20T04:39:38.164Z,10.05
2019-05-20T04:42:08.344Z,12.13
2019-05-20T04:44:39.364Z,12.03
2019-05-20T04:47:09.522Z,11.88
2019-05-20T04:49:39.995Z,11.35
2019-05-20T04:52:12.385Z,13.03
2019-05-20T04:54:42.491Z,12.95
2019-05-20T04:57:12.606Z,12.95
2019-05-20T04:59:42.734Z,12.65
2019-05-20T05:02:13.105Z,12.63
2019-05-20T05:04:43.489Z,13.65
2019-05-20T05:07:14.033Z,12.43
2019-05-20T05:09:44.508Z,13.35
2019-05-20T05:12:14.680Z,13.03
2019-05-20T05:14:44.846Z,13.50
2019-05-20T05:17:15.014Z,8.83
2019-05-20T05:19:45.164Z,13.45
2019-05-20T05:22:15.381Z,13.75
2019-05-20T05:24:45.716Z,14.87
2019-05-20T05:27:16.053Z,15.00
2019-05-20T05:29:46.379Z,13.75
2019-05-20T05:32:18.891Z,13.38
2019-05-20T05:34:49.043Z,14.10
2019-05-20T05:37:19.221Z,13.03
2019-05-20T05:39:49.924Z,12.75
2019-05-20T05:42:20.877Z,14.20
2019-05-20T05:44:51.359Z,12.85
2019-05-20T05:47:21.584Z,13.38
2019-05-20T05:49:51.814Z,13.48
2019-05-20T05:52:22.981Z,13.70
2019-05-20T05:54:54.181Z,12.33
2019-05-20T05:57:30.869Z,12.65
2019-05-20T06:00:01.048Z,12.85
2019-05-20T06:02:32.234Z,12.43
2019-05-20T06:05:03.300Z,11.70
2019-05-20T06:07:35.221Z,12.80
2019-05-20T06:10:08.488Z,13.18
2019-05-20T06:12:38.750Z,11.45
2019-05-20T06:15:11.929Z,10.75
2019-05-20T06:17:42.384Z,11.50
2019-05-20T06:20:12.794Z,12.70
2019-05-20T06:22:43.045Z,12.88
2019-05-20T06:25:14.268Z,10.80
2019-05-20T06:27:44.532Z,9.95
2019-05-20T06:30:16.529Z,11.90
2019-05-20T06:32:47.450Z,10.82
2019-05-20T06:35:17.989Z,11.85
2019-05-20T06:37:53.669Z,11.08
2019-05-20T06:40:24.143Z,10.80
2019-05-20T06:42:55.427Z,12.28
2019-05-20T06:45:25.727Z,11.78
2019-05-20T06:47:55.885Z,11.75
2019-05-20T06:50:29.516Z,11.38
2019-05-20T06:52:58.253Z,11.38
2019-05-20T06:55:29.729Z,11.65
2019-05-20T06:58:01.059Z,12.63
2019-05-20T07:00:36.191Z,12.20
2019-05-20T07:03:06.675Z,12.78
2019-05-20T07:05:40.944Z,12.98
2019-05-20T07:08:14.509Z,12.40
2019-05-20T07:10:45.596Z,13.08
2019-05-20T07:13:16.726Z,13.03
2019-05-20T07:15:46.962Z,13.20
2019-05-20T07:18:18.500Z,12.18
2019-05-20T07:20:48.929Z,10.88
2019-05-20T07:23:22.407Z,12.70
2019-05-20T07:25:54.267Z,11.83
2019-05-20T07:28:25.231Z,13.38
2019-05-20T07:30:55.640Z,12.40
2019-05-20T07:33:26.265Z,12.98
2019-05-20T07:35:56.846Z,12.40
2019-05-20T07:38:30.211Z,11.63
2019-05-20T07:41:01.911Z,11.93
2019-05-20T07:43:32.248Z,11.80
2019-05-20T07:46:07.743Z,12.23
2019-05-20T07:48:41.027Z,11.63
2019-05-20T07:51:12.695Z,10.60
2019-05-20T07:53:46.878Z,9.98
2019-05-20T07:56:23.038Z,12.03
2019-05-20T07:58:57.061Z,10.25
2019-05-20T08:01:27.684Z,11.78
2019-05-20T08:04:00.234Z,11.80
2019-05-20T08:06:33.592Z,9.73
2019-05-20T08:09:05.838Z,10.30
2019-05-20T08:11:39.214Z,9.63
2019-05-20T08:14:09.465Z,10.45
2019-05-20T08:16:39.870Z,9.93
2019-05-20T08:19:10.334Z,9.28
2019-05-20T08:21:42.148Z,10.82
2019-05-20T08:24:15.578Z,10.15
2019-05-20T08:26:46.106Z,9.03
2019-05-20T08:29:16.669Z,10.60
2019-05-20T08:31:46.989Z,10.20
2019-05-20T08:34:18.042Z,9.18
2019-05-20T08:36:51.819Z,9.50
2019-05-20T08:39:22.181Z,11.03
2019-05-20T08:41:53.259Z,10.50
2019-05-20T08:44:24.063Z,9.85
2019-05-20T08:46:56.362Z,9.43
2019-05-20T08:49:29.531Z,10.48
2019-05-20T08:52:00.224Z,11.57
2019-05-20T08:54:31.165Z,7.85
2019-05-20T08:57:01.472Z,9.33
2019-05-20T08:59:33.582Z,9.93
2019-05-20T09:02:03.994Z,9.25
2019-05-20T09:04:34.144Z,11.12
2019-05-20T09:07:04.954Z,11.20
2019-05-20T09:09:35.416Z,6.97
2019-05-20T09:12:05.841Z,9.60
2019-05-20T09:14:40.494Z,8.60
2019-05-20T09:17:10.937Z,8.63
2019-05-20T09:19:41.298Z,8.55
2019-05-20T09:22:11.519Z,10.10
2019-05-20T09:24:41.748Z,8.95
2019-05-20T09:27:12.682Z,8.90
2019-05-20T09:29:43.976Z,8.53
2019-05-20T09:32:16.487Z,8.70
2019-05-20T09:34:49.314Z,9.18
2019-05-20T09:37:25.698Z,7.60
2019-05-20T09:39:59.251Z,10.15
2019-05-20T09:42:40.658Z,8.63
2019-05-20T09:45:09.980Z,7.60
2019-05-20T09:47:46.625Z,7.10
2019-05-20T09:50:16.806Z,8.40
2019-05-20T09:52:48.399Z,7.30
2019-05-20T09:55:22.198Z,9.10
2019-05-20T09:57:52.875Z,7.08
2019-05-20T10:00:23.223Z,7.33
2019-05-20T10:02:55.031Z,7.97
2019-05-20T10:05:25.555Z,6.78
2019-05-20T10:07:55.775Z,7.67
2019-05-20T10:10:26.236Z,7.00
2019-05-20T10:12:59.438Z,5.60
2019-05-20T10:15:31.287Z,6.42
2019-05-20T10:18:01.405Z,6.15
2019-05-20T10:20:31.654Z,6.33
2019-05-20T10:23:06.629Z,6.20
2019-05-20T10:25:36.888Z,6.30
2019-05-20T10:28:07.095Z,6.65
2019-05-20T10:30:37.627Z,5.33
2019-05-20T10:33:10.216Z,5.47
2019-05-20T10:35:39.637Z,6.40
2019-05-20T10:38:09.891Z,4.70
2019-05-20T10:40:40.153Z,5.40
2019-05-20T10:43:10.336Z,4.85
2019-05-20T10:45:40.585Z,4.67
2019-05-20T10:48:10.733Z,5.17
2019-05-20T10:50:44.683Z,6.15
2019-05-20T10:53:15.797Z,4.10
2019-05-20T10:55:46.300Z,4.37
2019-05-20T10:58:16.587Z,2.90
2019-05-20T11:01:01.759Z,4.40
2019-05-20T11:03:18.523Z,3.05
2019-05-20T11:05:48.650Z,3.05
2019-05-20T11:08:18.780Z,4.42
2019-05-20T11:10:48.947Z,3.55
2019-05-20T11:13:19.321Z,3.45
2019-05-20T11:15:50.025Z,3.05
2019-05-20T11:18:20.294Z,4.35
2019-05-20T11:20:50.427Z,3.12
2019-05-20T11:23:20.549Z,3.83
2019-05-20T11:25:50.669Z,3.25
2019-05-20T11:28:20.812Z,2.70
2019-05-20T11:30:53.312Z,2.85
2019-05-20T11:33:23.475Z,1.80
2019-05-20T11:35:54.219Z,1.98
2019-05-20T11:38:24.540Z,2.80
2019-05-20T11:40:54.824Z,2.37
2019-05-20T11:43:25.238Z,2.77
2019-05-20T11:45:55.405Z,2.70
2019-05-20T11:48:25.715Z,2.40
2019-05-20T11:50:55.854Z,3.10
2019-05-20T11:53:25.998Z,2.62
2019-05-20T11:55:57.121Z,3.58
2019-05-20T11:58:27.376Z,3.12
2019-05-20T12:00:57.504Z,4.67
2019-05-20T12:03:27.664Z,6.37
2019-05-20T12:05:57.880Z,5.22
2019-05-20T12:08:28.033Z,3.75
2019-05-20T12:10:58.152Z,3.65
2019-05-20T12:13:28.545Z,3.65
2019-05-20T12:15:58.638Z,3.02
2019-05-20T12:18:28.796Z,3.30
2019-05-20T12:20:58.982Z,2.17
2019-05-20T12:23:29.259Z,2.37
2019-05-20T12:25:59.415Z,1.55
2019-05-20T12:28:29.619Z,2.17
2019-05-20T12:30:59.743Z,1.67
2019-05-20T12:33:30.070Z,1.87
2019-05-20T12:36:00.462Z,1.00
2019-05-20T12:38:30.770Z,0.90
2019-05-20T12:41:00.929Z,1.22
2019-05-20T12:43:33.423Z,2.50
2019-05-20T12:46:04.347Z,3.37
2019-05-20T12:48:34.688Z,1.87
2019-05-20T12:51:04.796Z,1.72
2019-05-20T12:53:35.115Z,1.67
2019-05-20T12:56:05.252Z,2.33
2019-05-20T12:58:35.417Z,2.08
2019-05-20T13:01:05.575Z,1.52
2019-05-20T13:03:35.678Z,2.08
2019-05-20T13:06:05.866Z,0.78
2019-05-20T13:08:36.073Z,0.93
2019-05-20T13:11:06.167Z,1.75
2019-05-20T13:13:36.274Z,0.88
2019-05-20T13:16:07.557Z,0.65
2019-05-20T13:18:55.020Z,0.35
2019-05-20T13:21:12.034Z,0.20
2019-05-20T13:23:42.250Z,0.37
2019-05-20T13:26:12.695Z,0.30
2019-05-20T13:28:42.879Z,0.20
2019-05-20T13:31:13.018Z,0.30
2019-05-20T13:33:43.389Z,0.20
2019-05-20T13:36:14.647Z,0.47
2019-05-20T13:38:44.916Z,0.20
2019-05-20T13:41:15.120Z,0.30
2019-05-20T13:43:45.484Z,0.30
2019-05-20T13:46:15.656Z,0.28
2019-05-20T13:48:45.847Z,0.20
2019-05-20T13:51:16.018Z,0.20
2019-05-20T13:53:46.130Z,0.20
2019-05-20T13:56:17.071Z,0.20
2019-05-20T13:58:47.203Z,0.20
2019-05-20T14:01:18.375Z,0.30
2019-05-20T14:03:48.674Z,0.25
2019-05-20T14:06:18.791Z,0.20
2019-05-20T14:08:49.263Z,0.23
2019-05-20T14:11:33.787Z,0.20
2019-05-20T14:13:51.499Z,0.20
2019-05-20T14:16:21.682Z,1.15
2019-05-20T14:18:51.850Z,0.68
2019-05-20T14:21:23.138Z,1.32
2019-05-20T14:23:53.509Z,0.93
2019-05-20T14:26:23.775Z,1.45
2019-05-20T14:28:54.009Z,0.85
2019-05-20T14:31:24.373Z,0.82
2019-05-20T14:33:57.210Z,1.00
2019-05-20T14:36:39.514Z,0.65
2019-05-20T14:39:02.574Z,1.10
2019-05-20T14:41:34.100Z,1.12
2019-05-20T14:44:04.565Z,1.37
2019-05-20T14:46:36.615Z,0.20
2019-05-20T14:49:06.905Z,0.30
2019-05-20T14:51:37.234Z,0.30
2019-05-20T14:54:08.973Z,0.20
2019-05-20T14:56:39.514Z,0.35
2019-05-20T14:59:09.717Z,0.23
2019-05-20T15:01:40.009Z,0.20
2019-05-20T15:04:10.289Z,0.20
2019-05-20T15:06:40.658Z,0.30
2019-05-20T15:09:11.173Z,0.23
2019-05-20T15:11:41.868Z,0.40
2019-05-20T15:14:12.098Z,0.62
2019-05-20T15:16:43.780Z,0.20
2019-05-20T15:19:14.228Z,0.30
2019-05-20T15:21:44.602Z,0.62
2019-05-20T15:24:14.854Z,0.20
2019-05-20T15:26:45.071Z,0.20
2019-05-20T15:29:27.720Z,0.30
2019-05-20T15:31:47.508Z,0.20
2019-05-20T15:34:24.271Z,0.28
2019-05-20T15:36:54.550Z,0.30
2019-05-20T15:39:27.041Z,0.30
2019-05-20T15:42:00.525Z,0.20
2019-05-20T15:44:33.636Z,0.30
2019-05-20T15:47:03.783Z,0.30
2019-05-20T15:49:33.970Z,0.30
2019-05-20T15:52:06.670Z,0.20
2019-05-20T15:54:36.883Z,0.20
2019-05-20T15:57:07.119Z,0.20
2019-05-20T15:59:45.983Z,0.20
2019-05-20T16:02:13.755Z,0.30
2019-05-20T16:04:45.525Z,0.20
2019-05-20T16:07:15.751Z,0.20
2019-05-20T16:09:45.896Z,0.30
2019-05-20T16:12:17.430Z,0.20
2019-05-20T16:14:51.426Z,0.20
2019-05-20T16:17:22.784Z,0.23
2019-05-20T16:19:54.160Z,0.30
2019-05-20T16:22:24.345Z,0.85
2019-05-20T16:24:54.485Z,0.30
2019-05-20T16:27:24.741Z,0.20
2019-05-20T16:30:06.213Z,0.20
2019-05-20T16:32:29.393Z,0.30
2019-05-20T16:34:59.709Z,0.20
2019-05-20T16:37:34.619Z,0.20
2019-05-20T16:40:11.317Z,0.20
2019-05-20T16:42:43.292Z,0.20
2019-05-20T16:45:16.216Z,0.30
2019-05-20T16:47:55.190Z,0.30
2019-05-20T16:50:25.652Z,0.30
2019-05-20T16:52:56.013Z,0.40
2019-05-20T16:55:29.489Z,0.30
2019-05-20T16:57:59.552Z,0.20
2019-05-20T17:00:32.180Z,0.40
2019-05-20T17:03:02.522Z,0.37
2019-05-20T17:05:33.001Z,0.35
2019-05-20T17:08:03.139Z,0.30
2019-05-20T17:10:33.365Z,0.20
2019-05-20T17:13:03.859Z,0.53
2019-05-20T17:15:34.309Z,0.45
2019-05-20T17:18:04.962Z,0.20
2019-05-20T17:20:35.174Z,0.30
2019-05-20T17:23:05.464Z,0.20
2019-05-20T17:25:35.693Z,0.40
2019-05-20T17:28:06.035Z,0.55
2019-05-20T17:30:45.238Z,0.40
2019-05-20T17:33:09.595Z,0.33
2019-05-20T17:35:40.473Z,0.40
2019-05-20T17:38:10.950Z,0.30
2019-05-20T17:40:41.469Z,0.40
2019-05-20T17:43:11.668Z,0.20
2019-05-20T17:45:41.962Z,0.37
2019-05-20T17:48:12.963Z,0.20
2019-05-20T17:50:43.482Z,0.33
2019-05-20T17:53:13.750Z,0.20
2019-05-20T17:55:44.023Z,0.40
2019-05-20T17:58:15.230Z,0.60
2019-05-20T18:00:45.863Z,0.55
2019-05-20T18:03:16.457Z,0.55
2019-05-20T18:05:46.751Z,0.98
2019-05-20T18:08:16.979Z,0.88
2019-05-20T18:10:47.169Z,1.02
2019-05-20T18:13:17.395Z,0.68
2019-05-20T18:15:51.316Z,0.47
2019-05-20T18:18:21.523Z,0.70
2019-05-20T18:20:52.430Z,1.20
2019-05-20T18:23:24.417Z,0.88
2019-05-20T18:25:55.711Z,1.40
2019-05-20T18:28:37.087Z,1.42
2019-05-20T18:31:08.747Z,1.55
2019-05-20T18:33:40.478Z,1.95
2019-05-20T18:36:13.199Z,1.42
2019-05-20T18:38:43.581Z,1.85
2019-05-20T18:41:16.102Z,0.90
2019-05-20T18:43:46.368Z,2.85
2019-05-20T18:46:18.253Z,2.72
2019-05-20T18:48:48.699Z,2.47
2019-05-20T18:51:24.997Z,3.15
2019-05-20T18:53:55.911Z,3.70
2019-05-20T18:56:27.324Z,3.80
2019-05-20T18:58:58.780Z,3.80
2019-05-20T19:01:28.973Z,3.75
2019-05-20T19:04:00.437Z,4.03
2019-05-20T19:06:30.554Z,4.20
2019-05-20T19:09:02.841Z,4.87
2019-05-20T19:11:34.644Z,5.20
2019-05-20T19:14:08.115Z,5.75
2019-05-20T19:16:36.671Z,4.30
2019-05-20T19:19:06.782Z,5.75
2019-05-20T19:21:37.106Z,4.95
2019-05-20T19:24:07.399Z,4.40
2019-05-20T19:26:37.553Z,5.12
2019-05-20T19:29:07.799Z,4.42
2019-05-20T19:31:38.063Z,5.78
2019-05-20T19:34:08.381Z,5.25
2019-05-20T19:36:39.677Z,4.75
2019-05-20T19:39:10.061Z,5.12
2019-05-20T19:41:41.863Z,5.95
2019-05-20T19:44:13.423Z,5.40
2019-05-20T19:46:44.152Z,5.15
2019-05-20T19:49:14.420Z,5.58
2019-05-20T19:51:44.896Z,5.90
2019-05-20T19:54:15.179Z,6.03
2019-05-20T19:56:45.442Z,6.35
2019-05-20T19:59:15.695Z,6.95
2019-05-20T20:01:45.921Z,7.60
2019-05-20T20:04:16.312Z,7.08
2019-05-20T20:06:46.846Z,8.60
2019-05-20T20:09:17.068Z,6.83
2019-05-20T20:11:47.197Z,7.03
2019-05-20T20:14:17.386Z,8.05
2019-05-20T20:16:48.867Z,7.15
2019-05-20T20:19:19.159Z,8.18
2019-05-20T20:21:49.283Z,9.10
2019-05-20T20:24:19.622Z,7.67
2019-05-20T20:26:49.755Z,7.75
2019-05-20T20:29:20.023Z,7.97
2019-05-20T20:31:50.475Z,8.08
2019-05-20T20:34:20.721Z,8.63
2019-05-20T20:36:50.894Z,7.33
2019-05-20T20:39:21.511Z,8.00
2019-05-20T20:41:51.788Z,6.95
2019-05-20T20:44:22.354Z,7.20
2019-05-20T20:46:52.531Z,6.55
2019-05-20T20:49:24.875Z,6.72
2019-05-20T20:51:55.109Z,7.17
2019-05-20T20:54:26.302Z,6.35
2019-05-20T20:56:56.539Z,5.55
2019-05-20T20:59:27.388Z,4.80
2019-05-20T21:01:59.307Z,7.08
2019-05-20T21:04:29.743Z,6.65
2019-05-20T21:07:00.253Z,5.75
2019-05-20T21:09:30.757Z,6.87
2019-05-20T21:12:00.921Z,3.83
2019-05-20T21:14:31.158Z,6.33
2019-05-20T21:17:02.679Z,6.00
2019-05-20T21:19:33.094Z,5.42
2019-05-20T21:22:04.113Z,5.10
2019-05-20T21:24:34.806Z,5.83
2019-05-20T21:27:05.088Z,5.17
2019-05-20T21:29:35.250Z,6.08
2019-05-20T21:32:05.603Z,5.35
2019-05-20T21:34:35.874Z,5.67
2019-05-20T21:37:09.045Z,5.17
2019-05-20T21:39:40.128Z,6.30
2019-05-20T21:42:10.455Z,5.45
2019-05-20T21:44:40.659Z,4.78
2019-05-20T21:47:10.973Z,6.28
2019-05-20T21:49:41.959Z,5.22
2019-05-20T21:52:12.110Z,7.08
2019-05-20T21:54:42.560Z,8.40
2019-05-20T21:57:12.762Z,7.33
2019-05-20T21:59:42.959Z,7.90
2019-05-20T22:02:13.453Z,8.45
2019-05-20T22:04:43.675Z,9.00
2019-05-20T22:07:15.287Z,8.38
2019-05-20T22:09:48.486Z,7.97
2019-05-20T22:12:18.715Z,8.55
2019-05-20T22:14:48.965Z,9.70
2019-05-20T22:17:19.435Z,9.45
2019-05-20T22:19:49.699Z,8.18
2019-05-20T22:22:44.698Z,9.68
2019-05-20T22:25:14.997Z,10.08
2019-05-20T22:27:45.095Z,9.75
2019-05-20T22:30:15.519Z,9.13
2019-05-20T22:32:45.704Z,9.70
2019-05-20T22:35:16.157Z,8.20
2019-05-20T22:37:46.341Z,8.68
2019-05-20T22:40:16.592Z,9.48
2019-05-20T22:42:46.803Z,9.48
2019-05-20T22:45:17.009Z,8.13
2019-05-20T22:47:48.252Z,8.23
2019-05-20T22:50:18.521Z,7.95
2019-05-20T22:52:48.714Z,7.67
2019-05-20T22:55:18.906Z,7.20
2019-05-20T22:57:49.125Z,7.92
2019-05-20T23:00:19.413Z,7.70
2019-05-20T23:02:49.583Z,8.15
2019-05-20T23:05:19.833Z,9.33
2019-05-20T23:07:52.906Z,9.18
2019-05-20T23:10:23.147Z,9.85
2019-05-20T23:12:53.715Z,7.95
2019-05-20T23:15:24.125Z,10.45
2019-05-20T23:17:57.330Z,9.75
2019-05-20T23:20:32.851Z,12.28
2019-05-20T23:23:06.737Z,9.63
2019-05-20T23:25:37.369Z,11.22
2019-05-20T23:28:07.648Z,9.40
2019-05-20T23:30:37.937Z,7.95
2019-05-20T23:33:08.186Z,7.53
2019-05-20T23:35:39.270Z,7.12
2019-05-20T23:38:09.423Z,10.48
2019-05-20T23:40:39.601Z,12.10
2019-05-20T23:43:10.024Z,8.83
2019-05-20T23:45:40.311Z,9.95
2019-05-20T23:48:10.853Z,11.05
2019-05-20T23:50:41.260Z,10.28
2019-05-20T23:53:11.479Z,9.43
2019-05-20T23:55:41.772Z,9.53
2019-05-20T23:58:12.929Z,9.78
